METAR Data
IDs: Format: Raw Decoded Include TAF

Data at: 0710 UTC 03 Aug 2021

EPPO 030700Z 24005KT 210V310 CAVOK 19/11 Q1014